Time;durP1;ratioP1;P1;durP2;ratioP2;P2;SDS_P1;SDS_P2;PMS_P1;PMS_P2;Temp;Humidity;BMP_temperature;BMP_pressure;BME280_temperature;BME280_humidity;BME280_pressure;Samples;Min_cycle;Max_cycle;Signal;HPM_P1;HPM_P2
2022/08/13 00:01:45;;;;;;;17.25;12.77;;;;;;;;;;8423692;28;20051;-90
2022/08/13 00:05:54;;;;;;;20.80;12.52;;;;;;;;;;8443217;28;20063;-89
2022/08/13 00:10:01;;;;;;;19.35;13.85;;;;;;;;;;8440335;28;20133;-89
2022/08/13 00:14:04;;;;;;;19.08;12.60;;;;;;;;;;8432883;28;20044;-89
2022/08/13 00:18:12;;;;;;;20.45;13.98;;;;;;;;;;8429779;28;20036;-89
2022/08/13 00:22:21;;;;;;;18.70;14.00;;;;;;;;;;8434558;28;20399;-89
2022/08/13 00:26:28;;;;;;;21.23;14.18;;;;;;;;;;8442097;28;20067;-89
2022/08/13 00:30:38;;;;;;;24.27;15.18;;;;;;;;;;8422696;28;20134;-89
2022/08/13 00:34:42;;;;;;;20.35;13.93;;;;;;;;;;8423437;28;20051;-89
2022/08/13 00:38:53;;;;;;;21.55;14.45;;;;;;;;;;8437445;28;20048;-89
2022/08/13 00:43:02;;;;;;;22.92;14.88;;;;;;;;;;8440193;28;20131;-88
2022/08/13 00:51:29;;;;;;;24.75;16.33;;;;;;;;;;8420768;28;20048;-89
2022/08/13 00:55:33;;;;;;;25.50;16.60;;;;;;;;;;8440268;28;20053;-89
2022/08/13 00:59:43;;;;;;;28.23;16.58;;;;;;;;;;8437878;28;20495;-88
2022/08/13 01:04:09;;;;;;;25.67;17.52;;;;;;;;;;8429642;28;20048;-92
2022/08/13 01:08:19;;;;;;;27.58;17.17;;;;;;;;;;8392751;28;20040;-90
2022/08/13 01:12:25;;;;;;;27.08;17.45;;;;;;;;;;8439332;28;20114;-90
2022/08/13 01:20:49;;;;;;;29.83;17.58;;;;;;;;;;8431224;28;20044;-88
2022/08/13 01:29:10;;;;;;;26.85;16.92;;;;;;;;;;8284937;28;20111;-89
2022/08/13 01:33:18;;;;;;;26.77;17.02;;;;;;;;;;8340690;28;20072;-89
2022/08/13 01:37:21;;;;;;;27.45;17.13;;;;;;;;;;8413572;28;20476;-89
2022/08/13 01:41:26;;;;;;;25.73;16.50;;;;;;;;;;8407953;28;20461;-90
2022/08/13 01:45:30;;;;;;;26.73;17.20;;;;;;;;;;8411577;28;20048;-89
2022/08/13 01:54:02;;;;;;;31.15;17.40;;;;;;;;;;8442625;28;20028;-90
2022/08/13 02:03:23;;;;;;;28.45;17.15;;;;;;;;;;8424240;28;20044;-89
2022/08/13 02:07:28;;;;;;;28.02;17.50;;;;;;;;;;8420177;28;20043;-89
2022/08/13 02:12:01;;;;;;;27.77;16.95;;;;;;;;;;8440466;28;20044;-90
2022/08/13 02:16:04;;;;;;;29.73;16.90;;;;;;;;;;8441373;28;20040;-89
2022/08/13 02:20:32;;;;;;;25.20;16.52;;;;;;;;;;8446932;28;20044;-90
2022/08/13 02:29:09;;;;;;;29.50;16.83;;;;;;;;;;8412478;28;20049;-89
2022/08/13 02:33:15;;;;;;;27.08;16.58;;;;;;;;;;8418459;28;20041;-89
2022/08/13 02:37:23;;;;;;;28.58;16.60;;;;;;;;;;8415188;28;20041;-89
2022/08/13 02:41:43;;;;;;;30.38;17.50;;;;;;;;;;8393957;28;20040;-89
2022/08/13 02:45:45;;;;;;;27.63;16.52;;;;;;;;;;8399442;28;20059;-89
2022/08/13 02:49:51;;;;;;;29.95;17.08;;;;;;;;;;8408535;28;20404;-89
2022/08/13 02:53:55;;;;;;;30.00;17.65;;;;;;;;;;8414419;28;20593;-90
2022/08/13 02:57:57;;;;;;;28.98;17.77;;;;;;;;;;8402663;28;20040;-89
2022/08/13 03:02:02;;;;;;;35.92;18.05;;;;;;;;;;8403787;28;20068;-89
2022/08/13 03:06:05;;;;;;;34.05;17.70;;;;;;;;;;8401941;28;20102;-88
2022/08/13 03:10:13;;;;;;;29.63;17.85;;;;;;;;;;8408411;28;20088;-89
2022/08/13 03:14:19;;;;;;;27.92;16.70;;;;;;;;;;8398340;28;20105;-89
2022/08/13 03:18:21;;;;;;;34.75;18.30;;;;;;;;;;8397981;28;20446;-90
2022/08/13 03:22:24;;;;;;;38.20;18.77;;;;;;;;;;8407743;28;20507;-89
2022/08/13 03:26:28;;;;;;;39.40;19.48;;;;;;;;;;8403697;28;20082;-89
2022/08/13 03:30:34;;;;;;;45.05;19.65;;;;;;;;;;8405977;28;20043;-88
2022/08/13 03:34:38;;;;;;;36.80;19.50;;;;;;;;;;8417163;28;20061;-89
2022/08/13 03:38:41;;;;;;;36.13;19.33;;;;;;;;;;8418215;28;20044;-88
2022/08/13 03:42:48;;;;;;;38.05;18.70;;;;;;;;;;8420209;28;20051;-88
2022/08/13 03:46:51;;;;;;;34.17;18.50;;;;;;;;;;8418724;28;20037;-88
2022/08/13 03:50:55;;;;;;;34.10;19.27;;;;;;;;;;8413947;28;20408;-88
2022/08/13 03:54:58;;;;;;;39.83;19.00;;;;;;;;;;8416467;28;20045;-90
2022/08/13 03:59:02;;;;;;;36.60;19.05;;;;;;;;;;8416056;28;20392;-89
2022/08/13 04:03:16;;;;;;;38.25;19.50;;;;;;;;;;8418094;28;20054;-89
2022/08/13 04:07:20;;;;;;;35.05;18.85;;;;;;;;;;8418658;28;20568;-88
2022/08/13 04:11:23;;;;;;;36.95;18.80;;;;;;;;;;8421105;28;20041;-88
2022/08/13 04:15:27;;;;;;;37.80;19.60;;;;;;;;;;8419443;28;20041;-89
2022/08/13 04:19:32;;;;;;;38.63;20.35;;;;;;;;;;8420870;28;20456;-89
2022/08/13 04:23:34;;;;;;;39.25;19.73;;;;;;;;;;8420416;28;20074;-88
2022/08/13 04:27:38;;;;;;;36.72;18.48;;;;;;;;;;8425241;28;20497;-88
2022/08/13 04:31:42;;;;;;;31.17;18.00;;;;;;;;;;8427078;28;20104;-88
2022/08/13 04:35:45;;;;;;;29.58;17.63;;;;;;;;;;8429581;28;20408;-88
2022/08/13 04:39:47;;;;;;;30.17;17.42;;;;;;;;;;8424822;28;20040;-87
2022/08/13 04:43:50;;;;;;;28.10;15.70;;;;;;;;;;8428880;28;20049;-88
2022/08/13 04:47:58;;;;;;;27.80;15.95;;;;;;;;;;8427366;28;20045;-88
2022/08/13 04:52:04;;;;;;;24.30;14.77;;;;;;;;;;8427155;28;20119;-88
2022/08/13 04:56:09;;;;;;;24.33;14.85;;;;;;;;;;8426591;28;20068;-89
2022/08/13 05:00:15;;;;;;;27.23;14.07;;;;;;;;;;8425348;28;20037;-88
2022/08/13 05:04:22;;;;;;;21.35;13.30;;;;;;;;;;8392793;28;20063;-88
2022/08/13 05:08:27;;;;;;;19.08;13.13;;;;;;;;;;8425396;28;20131;-87
2022/08/13 05:12:34;;;;;;;18.40;12.90;;;;;;;;;;8425154;28;20056;-89
2022/08/13 05:16:39;;;;;;;17.23;12.57;;;;;;;;;;8399199;28;20044;-88
2022/08/13 05:20:44;;;;;;;19.45;13.30;;;;;;;;;;8420253;28;20048;-89
2022/08/13 05:29:07;;;;;;;19.88;13.00;;;;;;;;;;8423489;28;20036;-88
2022/08/13 05:33:17;;;;;;;17.92;12.13;;;;;;;;;;8429656;28;20040;-88
2022/08/13 05:37:36;;;;;;;20.50;13.32;;;;;;;;;;8406457;28;20053;-88
2022/08/13 05:41:52;;;;;;;18.87;13.47;;;;;;;;;;8411975;28;20037;-89
2022/08/13 05:45:58;;;;;;;17.00;12.73;;;;;;;;;;8421886;28;20044;-89
2022/08/13 05:50:08;;;;;;;17.92;13.13;;;;;;;;;;8420742;28;20051;-89
2022/08/13 05:54:18;;;;;;;23.40;13.90;;;;;;;;;;8421394;28;20040;-88
2022/08/13 05:58:23;;;;;;;18.73;13.57;;;;;;;;;;8419142;28;20044;-87
2022/08/13 06:06:48;;;;;;;24.23;17.05;;;;;;;;;;8405254;28;20048;-88
2022/08/13 06:10:52;;;;;;;21.20;15.07;;;;;;;;;;8395288;28;20472;-87
2022/08/13 06:14:58;;;;;;;22.17;15.48;;;;;;;;;;8397115;28;20473;-87
2022/08/13 06:19:01;;;;;;;20.25;15.50;;;;;;;;;;8396712;28;20048;-87
2022/08/13 06:23:05;;;;;;;22.00;17.02;;;;;;;;;;8400477;28;20049;-88
2022/08/13 06:27:11;;;;;;;19.23;14.98;;;;;;;;;;8399217;28;20556;-87
2022/08/13 06:31:16;;;;;;;22.10;14.45;;;;;;;;;;8399125;28;20040;-88
2022/08/13 06:35:20;;;;;;;20.10;14.70;;;;;;;;;;8384963;28;20480;-86
2022/08/13 06:39:24;;;;;;;19.35;14.90;;;;;;;;;;8400366;28;20045;-87
2022/08/13 06:43:29;;;;;;;23.13;16.85;;;;;;;;;;8400689;28;20087;-88
2022/08/13 06:47:33;;;;;;;21.23;14.63;;;;;;;;;;8399037;28;20052;-88
2022/08/13 06:51:37;;;;;;;20.27;15.45;;;;;;;;;;8382994;28;20059;-87
2022/08/13 06:55:41;;;;;;;22.13;15.65;;;;;;;;;;8399841;28;20178;-88
2022/08/13 06:59:47;;;;;;;22.63;16.45;;;;;;;;;;8400982;28;20408;-87
2022/08/13 07:03:50;;;;;;;25.60;16.98;;;;;;;;;;8382131;28;20049;-87
2022/08/13 07:07:53;;;;;;;20.10;14.93;;;;;;;;;;8391482;28;20045;-87
2022/08/13 07:11:59;;;;;;;21.38;15.68;;;;;;;;;;8400691;28;20044;-87
2022/08/13 07:16:03;;;;;;;19.05;15.05;;;;;;;;;;8382106;28;20051;-87
2022/08/13 07:20:07;;;;;;;17.85;14.10;;;;;;;;;;8399361;28;20111;-88
2022/08/13 07:24:11;;;;;;;21.58;16.00;;;;;;;;;;8400076;28;20044;-86
2022/08/13 07:28:19;;;;;;;19.63;14.10;;;;;;;;;;8363125;28;20413;-88
2022/08/13 07:32:27;;;;;;;20.67;14.82;;;;;;;;;;8355836;28;20042;-86
2022/08/13 07:36:36;;;;;;;19.45;13.65;;;;;;;;;;8342874;28;20508;-86
2022/08/13 07:40:39;;;;;;;19.27;14.07;;;;;;;;;;8350064;28;20041;-86
2022/08/13 07:44:42;;;;;;;23.30;15.32;;;;;;;;;;8363199;28;20107;-87
2022/08/13 07:48:51;;;;;;;20.67;15.45;;;;;;;;;;8362544;28;20087;-87
2022/08/13 07:52:55;;;;;;;20.02;15.32;;;;;;;;;;8353305;28;20041;-85
2022/08/13 07:57:19;;;;;;;20.55;16.13;;;;;;;;;;8348984;28;20045;-87
2022/08/13 08:01:33;;;;;;;21.08;15.75;;;;;;;;;;8289581;28;20056;-88
2022/08/13 08:05:43;;;;;;;17.77;14.32;;;;;;;;;;8322955;28;20059;-88
2022/08/13 08:09:46;;;;;;;18.65;12.52;;;;;;;;;;8332942;28;20088;-86
2022/08/13 08:14:03;;;;;;;17.02;12.55;;;;;;;;;;8346507;28;20116;-86
2022/08/13 09:37:01;;;;;;;11.60;9.13;;;;;;;;;;7906338;30;20054;-90
2022/08/13 10:05:22;;;;;;;10.93;8.60;;;;;;;;;;8347497;26;20049;-88
2022/08/13 10:13:54;;;;;;;11.65;9.40;;;;;;;;;;8377608;28;20073;-89
2022/08/13 10:18:02;;;;;;;13.75;8.95;;;;;;;;;;8368147;28;20056;-87
2022/08/13 10:22:11;;;;;;;12.43;8.85;;;;;;;;;;8390394;28;20111;-87
2022/08/13 10:26:18;;;;;;;10.45;8.57;;;;;;;;;;8362993;28;20450;-88
2022/08/13 10:30:26;;;;;;;12.60;8.73;;;;;;;;;;8362138;28;20088;-87
2022/08/13 10:34:30;;;;;;;12.40;9.18;;;;;;;;;;8371521;28;20132;-87
2022/08/13 10:38:35;;;;;;;11.05;9.10;;;;;;;;;;8374901;28;20064;-87
2022/08/13 10:42:55;;;;;;;11.23;8.90;;;;;;;;;;8359037;28;20064;-87
2022/08/13 10:47:02;;;;;;;13.30;9.50;;;;;;;;;;8366071;28;20040;-86
2022/08/13 10:51:07;;;;;;;12.13;9.55;;;;;;;;;;8382618;28;20080;-89
2022/08/13 10:55:24;;;;;;;12.55;9.70;;;;;;;;;;8381269;28;20060;-87
2022/08/13 10:59:32;;;;;;;13.60;9.10;;;;;;;;;;8388988;28;20078;-88
2022/08/13 11:03:35;;;;;;;14.98;9.70;;;;;;;;;;8407337;28;20059;-86
2022/08/13 11:07:41;;;;;;;13.35;9.32;;;;;;;;;;8369162;28;20417;-85
2022/08/13 11:11:46;;;;;;;13.40;9.63;;;;;;;;;;8383057;28;20099;-88
2022/08/13 11:15:56;;;;;;;14.07;10.13;;;;;;;;;;8371723;28;20068;-88
2022/08/13 11:20:06;;;;;;;15.77;10.25;;;;;;;;;;8407342;28;20056;-88
2022/08/13 11:24:36;;;;;;;12.00;9.25;;;;;;;;;;8350702;28;20053;-88
2022/08/13 11:29:04;;;;;;;11.88;9.52;;;;;;;;;;8398345;28;20148;-88
2022/08/13 11:33:11;;;;;;;13.93;10.45;;;;;;;;;;8415208;28;20475;-88
2022/08/13 11:37:16;;;;;;;13.00;10.20;;;;;;;;;;8376324;28;20552;-88
2022/08/13 11:41:21;;;;;;;21.15;9.98;;;;;;;;;;8365028;28;20124;-86
2022/08/13 11:45:27;;;;;;;13.40;10.02;;;;;;;;;;8400825;28;20084;-86
2022/08/13 11:49:44;;;;;;;13.93;9.23;;;;;;;;;;8388076;28;20073;-87
2022/08/13 11:53:54;;;;;;;14.88;10.50;;;;;;;;;;8397345;28;20055;-86
2022/08/13 11:58:11;;;;;;;13.93;10.70;;;;;;;;;;8441065;23;20064;-87
2022/08/13 12:02:21;;;;;;;14.05;9.57;;;;;;;;;;8373295;28;20045;-88
2022/08/13 12:06:24;;;;;;;12.38;9.93;;;;;;;;;;8380528;28;20488;-87
2022/08/13 12:10:39;;;;;;;15.25;10.13;;;;;;;;;;8372492;28;20071;-88
2022/08/13 12:29:00;;;;;;;14.68;10.20;;;;;;;;;;8495083;28;20110;-87
2022/08/13 12:33:04;;;;;;;12.95;9.88;;;;;;;;;;8482197;28;20053;-88
2022/08/13 12:37:06;;;;;;;11.73;9.50;;;;;;;;;;8494535;28;20040;-87
2022/08/13 12:41:12;;;;;;;12.48;10.13;;;;;;;;;;8483583;28;20044;-87
2022/08/13 12:45:20;;;;;;;14.57;9.77;;;;;;;;;;8499567;28;20515;-87
2022/08/13 12:49:22;;;;;;;12.48;9.70;;;;;;;;;;8436348;28;20052;-87
2022/08/13 12:53:26;;;;;;;13.02;9.07;;;;;;;;;;8490301;28;20039;-87
2022/08/13 12:57:30;;;;;;;11.07;8.82;;;;;;;;;;8492058;28;20051;-86
2022/08/13 13:01:33;;;;;;;12.27;9.23;;;;;;;;;;8500778;28;20039;-86
2022/08/13 13:05:37;;;;;;;12.57;9.18;;;;;;;;;;8502991;28;20083;-87
2022/08/13 13:09:40;;;;;;;10.88;9.45;;;;;;;;;;8481257;28;20051;-86
2022/08/13 13:13:55;;;;;;;11.77;9.13;;;;;;;;;;8493394;28;20047;-87
2022/08/13 13:17:57;;;;;;;22.00;13.27;;;;;;;;;;8486294;28;20056;-86
2022/08/13 13:22:02;;;;;;;13.65;9.02;;;;;;;;;;8502963;28;20134;-86
2022/08/13 13:26:22;;;;;;;12.53;9.03;;;;;;;;;;8499826;28;20119;-86
2022/08/13 13:30:32;;;;;;;73.53;46.35;;;;;;;;;;8498304;28;20095;-87
2022/08/13 13:34:35;;;;;;;13.93;10.93;;;;;;;;;;8476455;28;20027;-87
2022/08/13 13:38:37;;;;;;;12.93;8.35;;;;;;;;;;8468208;28;20074;-85
2022/08/13 13:42:42;;;;;;;10.40;7.78;;;;;;;;;;8465313;28;20046;-86
2022/08/13 13:46:55;;;;;;;9.93;7.75;;;;;;;;;;8476398;28;20713;-86
2022/08/13 13:51:16;;;;;;;11.13;9.07;;;;;;;;;;8468849;28;20051;-86
2022/08/13 13:55:19;;;;;;;9.50;7.75;;;;;;;;;;8480232;28;20051;-86
2022/08/13 13:59:24;;;;;;;10.48;8.50;;;;;;;;;;8464849;28;20415;-87
2022/08/13 14:08:23;;;;;;;9.65;7.90;;;;;;;;;;8430392;28;20060;-86
2022/08/13 14:12:44;;;;;;;12.85;9.52;;;;;;;;;;8432300;28;20511;-87
2022/08/13 14:16:52;;;;;;;11.63;9.03;;;;;;;;;;8461412;28;20059;-88
2022/08/13 14:41:25;;;;;;;9.73;7.10;;;;;;;;;;8038591;29;20148;-86
2022/08/13 14:46:21;;;;;;;11.35;8.07;;;;;;;;;;7957369;29;20059;-88
2022/08/13 15:25:28;;;;;;;9.13;6.40;;;;;;;;;;7962428;29;20552;-85
2022/08/13 15:29:36;;;;;;;9.27;7.20;;;;;;;;;;7964494;29;20602;-86
2022/08/13 15:33:40;;;;;;;10.68;6.90;;;;;;;;;;7948817;29;20062;-86
2022/08/13 15:37:44;;;;;;;8.27;6.93;;;;;;;;;;7964184;29;20089;-86
2022/08/13 15:41:49;;;;;;;8.18;6.43;;;;;;;;;;7963065;29;20070;-86
2022/08/13 15:45:51;;;;;;;10.38;7.47;;;;;;;;;;7964594;29;20066;-86
2022/08/13 15:50:10;;;;;;;9.63;7.07;;;;;;;;;;7964521;29;20054;-85
2022/08/13 15:54:17;;;;;;;9.73;7.40;;;;;;;;;;7963118;29;20035;-86
2022/08/13 15:58:25;;;;;;;8.43;6.72;;;;;;;;;;7964371;29;20093;-85
2022/08/13 16:02:32;;;;;;;9.80;7.53;;;;;;;;;;7963542;29;20054;-85
2022/08/13 16:06:35;;;;;;;10.77;7.70;;;;;;;;;;7964048;29;20096;-87
2022/08/13 16:10:40;;;;;;;10.48;7.53;;;;;;;;;;7965798;29;20069;-86
2022/08/13 16:14:46;;;;;;;12.45;7.50;;;;;;;;;;8029908;29;20049;-86
2022/08/13 16:18:58;;;;;;;10.55;7.60;;;;;;;;;;8070970;29;20053;-86
2022/08/13 16:23:02;;;;;;;10.00;7.40;;;;;;;;;;8065197;29;20064;-86
2022/08/13 16:27:07;;;;;;;9.90;7.70;;;;;;;;;;8069751;29;20551;-85
2022/08/13 16:31:13;;;;;;;10.68;7.10;;;;;;;;;;8073910;29;20052;-86
2022/08/13 16:35:25;;;;;;;11.52;7.65;;;;;;;;;;8207837;29;20035;-86
2022/08/13 16:39:28;;;;;;;12.77;8.35;;;;;;;;;;8197115;28;20043;-86
2022/08/13 16:43:31;;;;;;;10.88;8.43;;;;;;;;;;8196890;29;20338;-87
2022/08/13 16:47:37;;;;;;;10.48;8.35;;;;;;;;;;8178869;29;20051;-87
2022/08/13 16:51:40;;;;;;;13.07;9.02;;;;;;;;;;8202953;29;20051;-87
2022/08/13 16:55:43;;;;;;;14.85;10.50;;;;;;;;;;8203151;29;20058;-86
2022/08/13 16:59:49;;;;;;;14.23;9.80;;;;;;;;;;8211542;29;20066;-86
2022/08/13 17:12:32;;;;;;;12.93;9.48;;;;;;;;;;8201313;29;20089;-87
2022/08/13 17:16:35;;;;;;;18.25;9.32;;;;;;;;;;8193424;29;20047;-87
2022/08/13 17:20:41;;;;;;;14.15;9.40;;;;;;;;;;8209039;28;20055;-87
2022/08/13 17:24:44;;;;;;;13.90;10.05;;;;;;;;;;8200132;29;20043;-87
2022/08/13 17:28:47;;;;;;;12.80;10.48;;;;;;;;;;8180984;29;20052;-87
2022/08/13 17:32:52;;;;;;;14.70;10.00;;;;;;;;;;8210738;28;20507;-88
2022/08/13 17:36:57;;;;;;;12.88;9.70;;;;;;;;;;8192775;29;20099;-88
2022/08/13 17:46:20;;;;;;;12.98;10.25;;;;;;;;;;8076738;29;20072;-87
2022/08/13 17:50:35;;;;;;;16.48;10.43;;;;;;;;;;8063400;29;20054;-87
2022/08/13 18:11:36;;;;;;;17.83;12.02;;;;;;;;;;7880115;30;20067;-88
2022/08/13 18:16:03;;;;;;;15.70;10.85;;;;;;;;;;7788502;30;20061;-86
2022/08/13 18:24:51;;;;;;;16.27;10.87;;;;;;;;;;7861576;30;20064;-87
2022/08/13 18:29:25;;;;;;;18.33;12.35;;;;;;;;;;8098501;23;20798;-87
2022/08/13 18:34:24;;;;;;;17.42;11.85;;;;;;;;;;8222326;28;20074;-87
2022/08/13 18:38:47;;;;;;;17.73;12.48;;;;;;;;;;8236089;28;20070;-87
2022/08/13 18:57:25;;;;;;;18.15;13.32;;;;;;;;;;7887806;30;20064;-87
2022/08/13 19:01:46;;;;;;;19.02;13.80;;;;;;;;;;7873855;30;20063;-87
2022/08/13 19:22:22;;;;;;;13.75;10.48;;;;;;;;;;7794707;30;20100;-87
2022/08/13 20:04:38;;;;;;;15.27;10.45;;;;;;;;;;7717803;30;20114;-87
2022/08/13 22:16:28;;;;;;;14.10;10.55;;;;;;;;;;8156901;29;20039;-96
2022/08/13 22:20:54;;;;;;;13.60;10.68;;;;;;;;;;8179547;29;20587;-94
2022/08/13 22:25:40;;;;;;;13.93;10.10;;;;;;;;;;8144230;29;20060;-94
2022/08/13 22:54:41;;;;;;;13.15;9.10;;;;;;;;;;7999506;29;20074;-95
2022/08/13 22:58:45;;;;;;;14.73;9.63;;;;;;;;;;8010862;29;20055;-94
2022/08/13 23:02:48;;;;;;;14.02;8.98;;;;;;;;;;8015528;29;20531;-96
2022/08/13 23:06:55;;;;;;;16.63;10.10;;;;;;;;;;8003049;29;20131;-94
2022/08/13 23:11:00;;;;;;;14.75;9.35;;;;;;;;;;8007354;29;20169;-95
2022/08/13 23:19:21;;;;;;;13.07;8.63;;;;;;;;;;8103133;29;20079;-90
2022/08/13 23:23:25;;;;;;;12.25;9.27;;;;;;;;;;8121895;29;20088;-96
2022/08/13 23:27:30;;;;;;;14.32;9.00;;;;;;;;;;8114382;29;20076;-96
2022/08/13 23:31:44;;;;;;;12.93;9.13;;;;;;;;;;8118785;29;20065;-95
2022/08/13 23:35:56;;;;;;;16.13;9.05;;;;;;;;;;8105784;29;20060;-96
2022/08/13 23:40:00;;;;;;;16.10;9.13;;;;;;;;;;8118753;29;20061;-96
2022/08/13 23:44:46;;;;;;;15.60;9.73;;;;;;;;;;8153155;29;20059;-94
2022/08/13 23:48:52;;;;;;;13.07;9.18;;;;;;;;;;8115832;29;20068;-96
2022/08/13 23:52:56;;;;;;;14.52;9.20;;;;;;;;;;8106592;29;20111;-96
2022/08/13 23:57:00;;;;;;;14.95;9.18;;;;;;;;;;8101878;29;20056;-96
